aviador You're here:

CYHE Decoded Metar

HOPE in BC, CANADA
Report Time2017-11-18 13:54:00
UTC Time2017-11-18 13:56:29
Flight Rules mvfr MVFR
Wind220° at 04 kt
W.Decomp.*RWY 25: 2.7 kt HW 2.9 kt LCW
W.Rank220° ranks 14
Current wind is below 220° avg. (5.4)
Visibility4828 m
Phenomena:Light Rain
Mist
Clouds:Broken 023 Hf
Overcast 028 Hf
Ceiling2,300 ft
Temp04°C (ISA -11)
Dew Point04°C (100% RH)
AAT1.2°C
QNH1024 hPa
Density Alt-1,437 ft
Elevation128 ft
Report Wrong Elevation
Raw Report
SPECI CYHE 181354Z AUTO 22004KT 3SM -RA BR BKN023 OVC028 04/04 A3025
RMK SLP247=

Extra information for CYHE:More info

Metar Taf Metar & Taf Last 4 Metars F.Rules Stats Wind Profile Meteogram Temp Stats Airport Information Weather charts Add Link Nearby VenuesMetar ALERT Operation Metar Decoded Social comments